createdAt,value
2022-08-27T00:03:27.010Z,3.25
2022-08-27T00:08:49.983Z,3.53
2022-08-27T00:14:11.947Z,2.78
2022-08-27T00:19:36.023Z,3.38
2022-08-27T00:24:57.744Z,2.67
2022-08-27T00:30:22.771Z,4.13
2022-08-27T00:35:44.592Z,1.80
2022-08-27T00:41:08.994Z,2.00
2022-08-27T00:46:42.152Z,1.73
2022-08-27T00:52:26.807Z,2.20
2022-08-27T00:57:56.551Z,1.25
2022-08-27T01:03:18.426Z,2.35
2022-08-27T01:08:44.696Z,1.80
2022-08-27T01:14:06.842Z,2.50
2022-08-27T01:19:39.496Z,3.08
2022-08-27T01:25:13.985Z,2.28
2022-08-27T01:30:37.158Z,2.67
2022-08-27T01:35:58.960Z,1.85
2022-08-27T01:41:20.747Z,1.48
2022-08-27T01:46:42.466Z,1.95
2022-08-27T01:52:05.251Z,1.33
2022-08-27T01:57:29.907Z,2.03
2022-08-27T02:02:51.966Z,1.27
2022-08-27T02:08:16.145Z,2.45
2022-08-27T02:13:39.342Z,1.77
2022-08-27T02:19:01.436Z,2.25
2022-08-27T02:24:24.326Z,1.98
2022-08-27T02:29:48.983Z,1.70
2022-08-27T02:35:11.601Z,1.30
2022-08-27T02:40:33.512Z,3.40
2022-08-27T02:45:55.387Z,1.60
2022-08-27T02:51:17.102Z,2.53
2022-08-27T02:56:39.560Z,1.17
2022-08-27T03:02:01.514Z,2.30
2022-08-27T03:07:24.536Z,2.70
2022-08-27T03:12:46.788Z,2.25
2022-08-27T03:18:21.735Z,2.53
2022-08-27T03:23:43.555Z,2.97
2022-08-27T03:29:05.383Z,1.80
2022-08-27T03:34:27.141Z,1.05
2022-08-27T03:39:48.805Z,3.28
2022-08-27T03:45:11.266Z,1.20
2022-08-27T03:50:33.680Z,1.48
2022-08-27T03:55:55.360Z,2.15
2022-08-27T04:01:17.621Z,2.72
2022-08-27T04:06:39.521Z,3.28
2022-08-27T04:12:01.265Z,1.77
2022-08-27T04:17:23.077Z,1.42
2022-08-27T04:22:44.919Z,1.00
2022-08-27T04:28:07.527Z,1.10
2022-08-27T04:33:29.455Z,1.25
2022-08-27T04:38:51.167Z,1.23
2022-08-27T04:44:12.898Z,2.08
2022-08-27T04:49:34.779Z,0.82
2022-08-27T04:54:57.159Z,1.30
2022-08-27T05:00:19.768Z,1.40
2022-08-27T05:05:42.797Z,1.88
2022-08-27T05:11:07.744Z,1.42
2022-08-27T05:16:29.760Z,1.75
2022-08-27T05:21:53.450Z,2.80
2022-08-27T05:27:15.161Z,1.27
2022-08-27T05:32:36.853Z,1.38
2022-08-27T05:38:00.213Z,1.27
2022-08-27T05:43:21.921Z,2.35
2022-08-27T05:48:43.810Z,2.13
2022-08-27T05:54:09.034Z,3.10
2022-08-27T05:59:49.814Z,2.05
2022-08-27T06:05:11.688Z,3.60
2022-08-27T06:10:33.836Z,1.63
2022-08-27T06:16:06.653Z,2.20
2022-08-27T06:21:28.586Z,2.83
2022-08-27T06:26:50.442Z,4.85
2022-08-27T06:32:13.472Z,2.00
2022-08-27T06:37:35.320Z,7.85
2022-08-27T06:42:57.567Z,2.20
2022-08-27T06:48:19.957Z,2.58
2022-08-27T06:53:41.799Z,1.60
2022-08-27T06:59:11.831Z,10.18
2022-08-27T07:04:34.321Z,9.38
2022-08-27T07:09:56.321Z,4.95
2022-08-27T07:15:18.332Z,7.68
2022-08-27T07:20:43.517Z,6.88
2022-08-27T07:26:13.392Z,3.63
2022-08-27T07:31:38.915Z,6.47
2022-08-27T07:37:00.660Z,5.43
2022-08-27T07:42:40.869Z,3.67
2022-08-27T07:48:03.064Z,4.78
2022-08-27T07:53:24.831Z,3.67
2022-08-27T07:58:47.189Z,5.20
2022-08-27T08:04:10.003Z,5.10
2022-08-27T08:09:33.684Z,4.00
2022-08-27T08:14:58.085Z,6.03
2022-08-27T08:20:31.274Z,6.33
2022-08-27T08:26:02.323Z,4.57
2022-08-27T08:31:24.438Z,4.68
2022-08-27T08:36:51.054Z,3.67
2022-08-27T08:42:39.062Z,5.82
2022-08-27T08:48:17.417Z,2.97
2022-08-27T08:53:48.137Z,4.47
2022-08-27T08:59:23.320Z,4.32
2022-08-27T09:04:45.435Z,3.73
2022-08-27T09:10:26.601Z,6.43
2022-08-27T09:15:49.075Z,7.80
2022-08-27T09:21:35.425Z,4.28
2022-08-27T09:32:26.604Z,3.03
2022-08-27T09:37:51.863Z,3.78
2022-08-27T09:48:38.805Z,2.60
2022-08-27T09:54:03.373Z,3.42
2022-08-27T09:59:35.428Z,1.83
2022-08-27T10:05:02.034Z,1.77
2022-08-27T10:10:33.215Z,3.35
2022-08-27T10:16:06.621Z,2.00
2022-08-27T10:21:44.684Z,2.58
2022-08-27T10:27:09.703Z,1.67
2022-08-27T10:38:21.818Z,3.65
2022-08-27T10:43:58.097Z,1.83
2022-08-27T10:49:37.963Z,4.43
2022-08-27T10:55:21.517Z,2.85
2022-08-27T11:00:53.860Z,3.40
2022-08-27T11:06:43.108Z,2.45
2022-08-27T11:12:14.331Z,2.58
2022-08-27T11:17:42.219Z,8.63
2022-08-27T11:23:09.498Z,3.88
2022-08-27T11:28:37.748Z,5.15
2022-08-27T11:34:11.086Z,7.47
2022-08-27T11:39:51.675Z,5.32
2022-08-27T11:45:18.850Z,3.45
2022-08-27T11:50:40.717Z,6.00
2022-08-27T11:56:20.990Z,6.28
2022-08-27T12:01:43.027Z,4.10
2022-08-27T12:07:29.815Z,2.90
2022-08-27T12:13:12.395Z,3.45
2022-08-27T12:18:45.612Z,4.15
2022-08-27T12:24:36.681Z,3.97
2022-08-27T12:30:18.744Z,2.70
2022-08-27T12:35:47.928Z,5.22
2022-08-27T12:41:10.166Z,4.97
2022-08-27T12:46:32.264Z,6.65
2022-08-27T12:51:58.848Z,5.50
2022-08-27T12:57:20.509Z,4.55
2022-08-27T13:03:11.938Z,3.13
2022-08-27T13:08:36.317Z,5.65
2022-08-27T13:14:16.659Z,3.13
2022-08-27T13:19:53.263Z,8.60
2022-08-27T13:25:27.581Z,3.85
2022-08-27T13:30:51.047Z,5.85
2022-08-27T13:36:13.301Z,6.32
2022-08-27T13:41:37.728Z,8.80
2022-08-27T13:47:06.118Z,8.77
2022-08-27T13:52:32.619Z,5.45
2022-08-27T13:57:55.627Z,6.93
2022-08-27T14:03:45.904Z,6.70
2022-08-27T14:09:17.954Z,3.38
2022-08-27T14:14:41.910Z,5.00
2022-08-27T14:20:06.685Z,3.53
2022-08-27T14:25:31.675Z,4.07
2022-08-27T14:30:53.820Z,5.70
2022-08-27T14:36:16.521Z,5.97
2022-08-27T14:41:39.183Z,5.20
2022-08-27T14:47:02.491Z,10.85
2022-08-27T14:52:25.575Z,12.25
2022-08-27T14:57:47.342Z,17.90
2022-08-27T15:03:11.064Z,21.88
2022-08-27T15:08:32.812Z,17.38
2022-08-27T15:13:56.235Z,20.63
2022-08-27T15:19:17.972Z,18.55
2022-08-27T15:24:43.582Z,12.20
2022-08-27T15:30:10.248Z,9.35
2022-08-27T15:35:32.324Z,11.23
2022-08-27T15:40:54.083Z,6.97
2022-08-27T15:46:15.850Z,8.45
2022-08-27T15:51:38.262Z,5.90
2022-08-27T15:57:00.348Z,5.53
2022-08-27T16:02:24.502Z,8.18
2022-08-27T16:07:47.102Z,5.10
2022-08-27T16:13:08.820Z,6.78
2022-08-27T16:18:33.680Z,4.35
2022-08-27T16:23:55.511Z,4.93
2022-08-27T16:29:17.405Z,5.80
2022-08-27T16:34:40.063Z,5.22
2022-08-27T16:40:01.888Z,13.43
2022-08-27T16:45:24.314Z,14.63
2022-08-27T16:50:46.461Z,16.98
2022-08-27T16:56:08.259Z,19.95
2022-08-27T17:01:30.200Z,15.43
2022-08-27T17:06:52.502Z,8.60
2022-08-27T17:12:18.876Z,10.57
2022-08-27T17:17:41.546Z,6.13
2022-08-27T17:23:04.564Z,16.00
2022-08-27T17:28:26.372Z,8.23
2022-08-27T17:33:52.739Z,30.98
2022-08-27T17:39:14.962Z,25.38
2022-08-27T17:44:37.773Z,40.40
2022-08-27T17:49:59.472Z,47.80
2022-08-27T17:55:21.265Z,33.03
2022-08-27T18:00:45.970Z,42.53
2022-08-27T18:06:07.892Z,43.47
2022-08-27T18:11:29.657Z,33.40
2022-08-27T18:16:51.433Z,27.80
2022-08-27T18:22:13.134Z,31.13
2022-08-27T18:27:37.786Z,18.48
2022-08-27T18:33:00.214Z,22.37
2022-08-27T18:38:22.032Z,26.13
2022-08-27T18:43:43.892Z,16.90
2022-08-27T18:49:05.685Z,13.55
2022-08-27T18:54:28.017Z,11.88
2022-08-27T18:59:49.778Z,10.65
2022-08-27T19:05:13.475Z,7.93
2022-08-27T19:10:35.196Z,9.18
2022-08-27T19:16:02.561Z,9.57
2022-08-27T19:21:24.269Z,8.10
2022-08-27T19:26:46.869Z,9.88
2022-08-27T19:32:08.632Z,17.52
2022-08-27T19:37:31.977Z,12.13
2022-08-27T19:42:53.963Z,12.10
2022-08-27T19:48:16.751Z,11.40
2022-08-27T19:53:38.569Z,6.45
2022-08-27T19:59:16.199Z,10.75
2022-08-27T20:05:01.310Z,6.85
2022-08-27T20:10:36.123Z,4.47
2022-08-27T20:15:58.651Z,5.88
2022-08-27T20:21:20.944Z,12.60
2022-08-27T20:26:43.161Z,11.45
2022-08-27T20:32:05.099Z,10.00
2022-08-27T20:37:26.911Z,6.15
2022-08-27T20:42:48.855Z,9.32
2022-08-27T20:48:11.803Z,3.85
2022-08-27T20:53:33.597Z,2.65
2022-08-27T20:59:14.231Z,6.63
2022-08-27T21:04:38.051Z,6.88
2022-08-27T21:09:59.739Z,5.38
2022-08-27T21:15:21.508Z,6.13
2022-08-27T21:20:43.465Z,4.95
2022-08-27T21:26:12.152Z,4.25
2022-08-27T21:31:33.990Z,4.30
2022-08-27T21:36:56.296Z,3.97
2022-08-27T21:42:18.147Z,4.35
2022-08-27T21:47:39.941Z,3.25
2022-08-27T21:53:01.706Z,1.98
2022-08-27T21:58:26.623Z,4.78
2022-08-27T22:03:51.846Z,4.97
2022-08-27T22:09:14.360Z,5.30
2022-08-27T22:14:37.612Z,4.15
2022-08-27T22:20:00.784Z,2.08
2022-08-27T22:25:23.025Z,4.00
2022-08-27T22:30:45.329Z,4.05
2022-08-27T22:36:07.298Z,5.28
2022-08-27T22:41:29.068Z,6.40
2022-08-27T22:52:16.177Z,3.42
2022-08-27T22:57:37.895Z,3.88
2022-08-27T23:03:00.749Z,3.97
2022-08-27T23:08:23.177Z,2.42
2022-08-27T23:13:45.433Z,2.05
2022-08-27T23:19:07.107Z,3.15
2022-08-27T23:24:28.824Z,3.33
2022-08-27T23:29:52.896Z,3.42
2022-08-27T23:35:15.923Z,2.40
2022-08-27T23:40:37.696Z,2.90
2022-08-27T23:45:59.507Z,4.43
2022-08-27T23:51:21.224Z,3.40
2022-08-27T23:56:42.955Z,4.18
